FW6800 Weather Reports


Display with metric or nautical units.
time (UTC)temp
F
wind
direction
speed
MPH
gust
MPH
rain 1hr
in
rain 24hr
in
rain mn
in
humidity
%
barometer
mb
20200401060021 49 0.0 0.0 0.00 0.00 0.00 39 1006.5
20200401055025 51 0.0 0.0 0.00 0.00 0.00 37 1006.6
20200401054021 53 0.0 0.0 0.00 0.00 0.00 33 1006.6
20200401053019 55 236 1.0 3.0 0.00 0.00 0.00 32 1006.5
20200401052016 56 245 3.0 5.0 0.00 0.00 0.00 31 1006.7
20200401051020 57 205 3.0 5.0 0.00 0.00 0.00 29 1006.6
20200401050026 57 187 4.0 5.0 0.00 0.00 0.00 29 1006.5
20200401045027 57 194 4.0 5.0 0.00 0.00 0.00 29 1006.7
20200401044030 56 185 4.0 6.0 0.00 0.00 0.00 30 1006.8
20200401043015 57 203 4.0 6.0 0.00 0.00 0.00 29 1007.0
20200401042018 59 209 6.0 7.0 0.00 0.00 0.00 27 1006.7
20200401041022 59 198 6.0 9.0 0.00 0.00 0.00 27 1007.1
20200401040025 60 208 7.0 10.0 0.00 0.00 0.00 26 1007.1
20200401035029 59 204 7.0 10.0 0.00 0.00 0.00 26 1007.2
20200401034032 59 193 5.0 8.0 0.00 0.00 0.00 27 1007.2
20200401033017 60 203 6.0 9.0 0.00 0.00 0.00 25 1007.1
20200401032021 60 205 6.0 9.0 0.00 0.00 0.00 25 1006.9
20200401031024 60 206 6.0 8.0 0.00 0.00 0.00 25 1006.7
20200401030027 61 222 7.0 9.0 0.00 0.00 0.00 24 1006.5
20200401025031 61 208 8.0 9.0 0.00 0.00 0.00 24 1006.5
20200401024016 61 209 9.0 13.0 0.00 0.00 0.00 24 1006.5
20200401023019 61 202 6.0 8.0 0.00 0.00 0.00 24 1006.4
20200401022023 61 219 7.0 9.0 0.00 0.00 0.00 24 1006.4
20200401021026 62 208 10.0 15.0 0.00 0.00 0.00 23 1006.4
20200401020023 62 181 8.0 9.0 0.00 0.00 0.00 23 1006.4
20200401015015 62 204 7.0 12.0 0.00 0.00 0.00 23 1006.4
20200401014018 62 210 6.0 9.0 0.00 0.00 0.00 23 1006.4
20200401013015 62 194 5.0 8.0 0.00 0.00 0.00 23 1006.5
20200401012025 63 216 4.0 12.0 0.00 0.00 0.00 22 1006.6
20200401011028 63 204 7.0 10.0 0.00 0.00 0.00 22 1006.4
20200401010031 64 213 6.0 12.0 0.00 0.00 0.00 21 1006.5
20200401005017 64 210 6.0 11.0 0.00 0.00 0.00 22 1006.7
20200401004020 65 218 6.0 10.0 0.00 0.00 0.00 21 1006.7
20200401003023 66 274 7.0 13.0 0.00 0.00 0.00 21 1006.7
20200401002027 65 199 5.0 9.0 0.00 0.00 0.00 21 1006.7
20200401001031 66 200 4.0 6.0 0.00 0.00 0.00 21 1006.7
20200401000015 66 211 5.0 8.0 0.00 0.00 0.00 21 1006.6
20200331235018 67 248 8.0 10.0 0.00 0.00 0.00 20 1006.7
20200331234021 70 250 7.0 12.0 0.00 0.00 0.00 19 1006.7
20200331233025 71 261 5.0 8.0 0.00 0.00 0.00 19 1006.7
20200331232028 70 228 7.0 10.0 0.00 0.00 0.00 19 1006.7
20200331231031 71 240 8.0 12.0 0.00 0.00 0.00 19 1006.5
20200331230017 69 206 8.0 12.0 0.00 0.00 0.00 19 1006.7
20200331225020 71 237 7.0 9.0 0.00 0.00 0.00 19 1006.8
20200331224023 69 181 8.0 13.0 0.00 0.00 0.00 19 1006.9
20200331223026 70 217 8.0 12.0 0.00 0.00 0.00 19 1007.0
20200331222023 70 220 9.0 12.0 0.00 0.00 0.00 18 1006.9
20200331221015 70 209 9.0 14.0 0.00 0.00 0.00 19 1007.4
20200331220018 70 219 7.0 12.0 0.00 0.00 0.00 19 1007.4
20200331215015 70 227 7.0 11.0 0.00 0.00 0.00 20 1007.3
20200331214025 69 234 9.0 13.0 0.00 0.00 0.00 20 1007.4
20200331213028 70 209 10.0 15.0 0.00 0.00 0.00 19 1007.4
20200331212031 69 219 9.0 13.0 0.00 0.00 0.00 20 1007.6
20200331211017 70 245 10.0 18.0 0.00 0.00 0.00 19 1007.9
20200331210020 69 232 10.0 14.0 0.00 0.00 0.00 20 1007.9
20200331205023 70 215 8.0 15.0 0.00 0.00 0.00 20 1008.1
20200331204026 70 217 9.0 13.0 0.00 0.00 0.00 19 1008.2
20200331203030 70 270 9.0 16.0 0.00 0.00 0.00 20 1008.3
20200331202015 70 217 8.0 13.0 0.00 0.00 0.00 20 1008.5
20200331201018 69 190 10.0 16.0 0.00 0.00 0.00 19 1008.7
20200331200022 69 246 6.0 8.0 0.00 0.00 0.00 21 1009.2
20200331195025 67 194 4.0 8.0 0.00 0.00 0.00 23 1009.1
20200331194029 67 266 6.0 11.0 0.00 0.00 0.00 24 1009.2
20200331193032 68 1.0 1.0 0.00 0.00 0.00 24 1009.3
20200331192017 66 210 5.0 7.0 0.00 0.00 0.00 27 1009.4
20200331191021 66 90 5.0 5.0 0.00 0.00 0.00 27 1009.7
20200331190024 66 200 4.0 8.0 0.00 0.00 0.00 25 1010.0
20200331185027 65 188 4.0 7.0 0.00 0.00 0.00 26 1010.1
20200331184024 65 287 4.0 7.0 0.00 0.00 0.00 25 1010.2
20200331183017 65 260 5.0 6.0 0.00 0.00 0.00 26 1010.4
20200331182019 64 240 5.0 8.0 0.00 0.00 0.00 26 1010.8
20200331181016 63 12 6.0 8.0 0.00 0.00 0.00 28 1010.8
20200331180026 64 233 5.0 8.0 0.00 0.00 0.00 27 1011.3
20200331175029 64 265 5.0 10.0 0.00 0.00 0.00 26 1011.4
20200331174032 63 202 7.0 10.0 0.00 0.00 0.00 25 1011.5
20200331173017 63 188 4.0 10.0 0.00 0.00 0.00 26 1011.8
20200331172021 62 203 6.0 12.0 0.00 0.00 0.00 27 1011.6
20200331171024 62 246 5.0 8.0 0.00 0.00 0.00 27 1011.8
20200331170028 62 191 5.0 9.0 0.00 0.00 0.00 26 1012.0
20200331165031 61 189 6.0 9.0 0.00 0.00 0.00 26 1012.2
20200331164016 61 195 4.0 6.0 0.00 0.00 0.00 27 1012.3
20200331163020 62 215 3.0 5.0 0.00 0.00 0.00 27 1012.5
20200331162023 61 239 3.0 6.0 0.00 0.00 0.00 29 1012.6
20200331161026 62 186 2.0 3.0 0.00 0.00 0.00 28 1012.8
20200331160029 62 124 2.0 5.0 0.00 0.00 0.00 29 1012.9
20200331155015 60 115 4.0 6.0 0.00 0.00 0.00 32 1012.8
20200331154018 58 121 3.0 4.0 0.00 0.00 0.00 32 1012.9
20200331153022 58 245 3.0 6.0 0.00 0.00 0.00 33 1012.9
20200331152025 57 186 2.0 5.0 0.00 0.00 0.00 39 1012.9
20200331151028 54 126 3.0 5.0 0.00 0.00 0.00 44 1013.0
20200331150025 56 233 1.0 4.0 0.00 0.00 0.00 40 1013.0
20200331145017 53 145 1.0 2.0 0.00 0.00 0.00 48 1013.2
20200331144020 48 0.0 0.0 0.00 0.00 0.00 51 1013.4
20200331143017 44 180 1.0 3.0 0.00 0.00 0.00 55 1013.6
20200331142027 40 177 1.0 4.0 0.00 0.00 0.00 57 1013.7
20200331141030 39 158 1.0 3.0 0.00 0.00 0.00 61 1014.0
20200331140015 37 0.0 0.0 0.00 0.00 0.00 64 1013.9
20200331135019 37 185 1.0 3.0 0.00 0.00 0.00 63 1013.9
20200331134022 36 184 1.0 2.0 0.00 0.00 0.00 64 1013.9
20200331133025 35 113 1.0 4.0 0.00 0.00 0.00 67 1014.0
20200331132029 34 193 1.0 5.0 0.00 0.00 0.00 69 1014.0
20200331131032 34 0.0 0.0 0.00 0.00 0.00 68 1013.9
20200331130017 34 0.0 0.0 0.00 0.00 0.00 68 1014.0
20200331125020 34 0.0 0.0 0.00 0.00 0.00 69 1013.9
20200331124114 34 0.0 0.0 0.00 0.00 0.00 69 1013.9
20200331123027 34 0.0 0.0 0.00 0.00 0.00 69 1014.0
20200331122030 34 0.0 0.0 0.00 0.00 0.00 68 1013.9
20200331121018 34 204 2.0 3.0 0.00 0.00 0.00 68 1013.7
20200331120021 36 180 2.0 3.0 0.00 0.00 0.00 66 1013.9
20200331115022 35 180 1.0 3.0 0.00 0.00 0.00 67 1013.9
20200331114026 35 0.0 0.0 0.00 0.00 0.00 67 1013.9
20200331113029 34 0.0 0.0 0.00 0.00 0.00 70 1013.9
20200331112014 34 0.0 0.0 0.00 0.00 0.00 70 1013.7
20200331111018 33 0.0 0.0 0.00 0.00 0.00 72 1013.9
20200331110021 33 0.0 1.0 0.00 0.00 0.00 71 1013.6
20200331105019 33 0.0 0.0 0.00 0.00 0.00 71 1013.8
20200331104016 34 180 0.0 1.0 0.00 0.00 0.00 69 1013.8
20200331103032 35 186 1.0 3.0 0.00 0.00 0.00 68 1013.7
20200331102017 34 180 0.0 2.0 0.00 0.00 0.00 68 1013.7
20200331101021 35 185 1.0 3.0 0.00 0.00 0.00 68 1014.0
20200331100024 35 0.0 0.0 0.00 0.00 0.00 68 1014.0
20200331095027 35 0.0 0.0 0.00 0.00 0.00 67 1014.3
20200331094031 35 0.0 0.0 0.00 0.00 0.00 68 1014.3
20200331093017 35 0.0 0.0 0.00 0.00 0.00 68 1014.1
20200331091023 34 0.0 0.0 0.00 0.00 0.00 68 1014.2
20200331090027 35 180 0.0 2.0 0.00 0.00 0.00 70 1014.0
20200331085030 34 180 0.0 2.0 0.00 0.00 0.00 70 1013.8
20200331084015 35 147 1.0 3.0 0.00 0.00 0.00 67 1013.8
20200331083019 34 0.0 0.0 0.00 0.00 0.00 68 1014.0
20200331082022 33 0.0 0.0 0.00 0.00 0.00 71 1013.7
20200331081025 33 0.0 0.0 0.00 0.00 0.00 68 1013.9
20200331080029 33 0.0 0.0 0.00 0.00 0.00 68 1013.7
20200331075032 34 0.0 0.0 0.00 0.00 0.00 67 1013.9
20200331074018 34 0.0 0.0 0.00 0.00 0.00 65 1014.1
20200331073021 35 0.0 0.0 0.00 0.00 0.00 63 1014.2
20200331072024 35 0.0 0.0 0.00 0.00 0.00 64 1014.3
20200331071022 36 0.0 0.0 0.00 0.00 0.00 62 1014.6
20200331070019 35 0.0 0.0 0.00 0.00 0.00 63 1014.6
20200331065017 35 0.0 0.0 0.00 0.00 0.00 64 1014.7
20200331064021 35 0.0 0.0 0.00 0.00 0.00 64 1014.7
20200331063025 36 0.0 0.0 0.00 0.00 0.00 62 1014.8
20200331062027 36 0.0 0.0 0.00 0.00 0.00 63 1014.9
20200331061031 36 0.0 0.0 0.00 0.00 0.00 64 1014.9